createdAt,value
2018-04-01T10:52:25.830Z,28.10
2018-04-01T10:56:41.457Z,24.00
2018-04-01T10:59:09.404Z,23.90
2018-04-01T11:01:37.383Z,24.30
2018-04-01T11:04:05.361Z,23.90
2018-04-01T11:06:33.334Z,23.80
2018-04-01T11:09:01.324Z,23.80
2018-04-01T11:11:29.334Z,23.90
2018-04-01T11:13:58.025Z,23.90
2018-04-01T11:16:25.996Z,23.80
2018-04-01T11:18:53.963Z,23.80
2018-04-01T11:21:21.944Z,23.80
2018-04-01T11:34:29.128Z,24.10
2018-04-01T11:36:57.126Z,24.40
2018-04-01T11:53:06.862Z,28.10
2018-04-01T11:56:17.952Z,28.60
2018-04-01T12:00:07.613Z,29.00
2018-04-01T12:02:35.621Z,28.80
2018-04-01T12:06:28.432Z,26.00
2018-04-01T12:12:39.600Z,25.60
2018-04-01T12:14:57.867Z,25.60
2018-04-01T12:15:11.620Z,25.60
2018-04-01T12:15:24.586Z,25.50
2018-04-01T12:15:38.565Z,25.50
2018-04-01T12:15:51.540Z,25.40
2018-04-01T12:16:04.518Z,25.40
2018-04-01T12:16:18.333Z,25.40
2018-04-01T12:16:31.447Z,25.40
2018-04-01T12:16:45.201Z,25.30
2018-04-01T12:17:00.584Z,25.30
2018-04-01T12:17:36.293Z,25.30
2018-04-01T12:17:49.300Z,25.30
2018-04-01T12:18:03.031Z,25.30
2018-04-01T12:18:16.015Z,25.30
2018-04-01T12:18:29.760Z,25.20
2018-04-01T12:21:23.977Z,25.20
2018-04-01T12:23:51.985Z,24.70
2018-04-01T12:26:19.973Z,24.30
2018-04-01T12:28:47.979Z,24.10
2018-04-01T12:31:15.973Z,24.10
2018-04-01T12:33:44.813Z,23.80
2018-04-01T12:36:13.570Z,23.40
2018-04-01T12:38:41.577Z,23.30
2018-04-01T12:41:10.352Z,22.50
2018-04-01T12:43:38.349Z,22.50
2018-04-01T12:46:07.112Z,22.90
2018-04-01T12:48:35.119Z,23.00
2018-04-01T12:51:03.144Z,23.00
2018-04-01T12:53:31.146Z,23.10
2018-04-01T12:55:59.924Z,23.20
2018-04-01T12:58:28.676Z,23.20
2018-04-01T13:00:56.671Z,23.20
2018-04-01T13:03:24.681Z,23.10
2018-04-01T13:05:52.680Z,23.20
2018-04-01T13:08:20.683Z,23.10
2018-04-01T13:10:48.694Z,23.10
2018-04-01T13:13:16.695Z,23.10
2018-04-01T13:15:44.690Z,23.10
2018-04-01T13:18:12.700Z,23.10
2018-04-01T13:20:44.128Z,23.00
2018-04-01T13:23:12.897Z,23.00
2018-04-01T13:25:40.898Z,23.00
2018-04-01T13:28:09.672Z,23.00
2018-04-01T13:30:38.454Z,23.20
2018-04-01T13:33:06.439Z,23.10
2018-04-01T13:35:34.442Z,23.10
2018-04-01T13:38:02.443Z,23.10
2018-04-01T13:40:30.439Z,23.10
2018-04-01T13:42:58.442Z,23.10
2018-04-01T13:45:26.439Z,23.10
2018-04-01T13:47:54.432Z,23.10
2018-04-01T13:50:35.689Z,23.10
2018-04-01T13:53:03.695Z,23.10
2018-04-01T13:55:31.695Z,23.10
2018-04-01T13:58:00.460Z,23.20
2018-04-01T14:00:28.471Z,23.20
2018-04-01T14:02:56.471Z,23.20
2018-04-01T14:05:24.465Z,23.30
2018-04-01T14:07:52.460Z,23.30
2018-04-01T14:10:21.247Z,23.30
2018-04-01T14:12:50.016Z,23.20
2018-04-01T14:15:18.012Z,23.20
2018-04-01T14:17:46.768Z,23.20
2018-04-01T14:20:14.853Z,23.20
2018-04-01T14:22:42.836Z,23.20
2018-04-01T14:25:11.603Z,23.10
2018-04-01T14:27:40.461Z,23.10
2018-04-01T14:30:08.423Z,23.10
2018-04-01T14:32:36.423Z,23.10
2018-04-01T14:35:04.417Z,23.00
2018-04-01T14:37:33.176Z,23.00
2018-04-01T14:40:01.179Z,23.00
2018-04-01T14:42:29.935Z,23.00
2018-04-01T14:44:57.955Z,23.00
2018-04-01T14:50:33.844Z,23.00
2018-04-01T14:53:01.859Z,22.90
2018-04-01T14:55:29.847Z,23.00
2018-04-01T14:57:58.610Z,22.90
2018-04-01T15:00:26.616Z,22.90
2018-04-01T15:02:55.396Z,22.90
2018-04-01T15:05:23.393Z,22.90
2018-04-01T15:07:51.392Z,23.00
2018-04-01T15:10:19.394Z,22.90
2018-04-01T15:12:47.405Z,22.90
2018-04-01T15:15:15.415Z,22.90
2018-04-01T15:17:43.415Z,22.90
2018-04-01T15:20:11.424Z,22.90
2018-04-01T15:22:39.419Z,22.90
2018-04-01T15:25:07.412Z,22.90
2018-04-01T15:27:36.194Z,22.90
2018-04-01T15:30:04.192Z,22.90
2018-04-01T15:32:32.960Z,22.90
2018-04-01T15:35:00.965Z,22.80
2018-04-01T15:37:29.722Z,22.90
2018-04-01T15:39:57.720Z,22.90
2018-04-01T15:42:26.496Z,22.90
2018-04-01T15:44:54.488Z,22.90
2018-04-01T15:47:23.251Z,22.90
2018-04-01T15:49:51.251Z,22.90
2018-04-01T15:52:19.284Z,22.90
2018-04-01T15:54:47.265Z,23.00
2018-04-01T15:57:16.042Z,23.20
2018-04-01T15:59:44.036Z,23.20
2018-04-01T16:02:12.811Z,24.60
2018-04-01T16:04:41.596Z,25.10
2018-04-01T16:07:10.359Z,25.40
2018-04-01T16:09:38.350Z,25.40
2018-04-01T16:12:06.351Z,25.60
2018-04-01T16:14:35.117Z,25.40
2018-04-01T16:17:16.612Z,25.30
2018-04-01T16:19:45.364Z,25.30
2018-04-01T16:22:13.401Z,25.30
2018-04-01T16:24:49.714Z,25.20
2018-04-01T16:27:18.251Z,25.20
2018-04-01T18:40:46.519Z,23.00
2018-04-01T18:43:14.604Z,22.50
2018-04-01T18:45:42.649Z,22.20
2018-04-01T18:48:11.494Z,22.20
2018-04-01T18:50:39.843Z,22.20
2018-04-01T18:53:08.954Z,22.30
2018-04-01T18:55:37.177Z,22.40
2018-04-01T18:58:05.965Z,22.50
2018-04-01T19:00:35.015Z,22.50
2018-04-01T19:03:03.036Z,22.50
2018-04-01T19:05:31.819Z,22.60
2018-04-01T19:07:59.832Z,22.60
2018-04-01T19:10:27.855Z,22.60
2018-04-01T19:12:55.848Z,22.60
2018-04-01T19:15:23.867Z,22.70
2018-04-01T19:17:52.640Z,22.70
2018-04-01T19:20:23.391Z,22.70
2018-04-01T19:22:52.428Z,22.70
2018-04-01T19:25:21.478Z,22.70
2018-04-01T19:27:50.517Z,22.70
2018-04-01T19:32:43.978Z,22.70
2018-04-01T19:35:14.029Z,22.70
2018-04-01T19:37:44.393Z,22.80
2018-04-01T19:40:14.260Z,22.80
2018-04-01T19:42:44.088Z,22.80
2018-04-01T19:45:13.902Z,22.80
2018-04-01T19:47:43.731Z,22.80
2018-04-01T19:50:13.547Z,22.90
2018-04-01T19:52:43.354Z,22.80
2018-04-01T19:55:13.171Z,22.80
2018-04-01T19:57:43.156Z,22.80
2018-04-01T20:00:13.738Z,22.80
2018-04-01T20:02:43.547Z,22.80
2018-04-01T20:05:13.362Z,22.80
2018-04-01T20:07:43.172Z,22.80
2018-04-01T20:10:13.017Z,22.90
2018-04-01T20:12:43.598Z,22.90
2018-04-01T20:15:13.435Z,22.90
2018-04-01T20:17:43.258Z,22.90
2018-04-01T20:20:13.071Z,22.90
2018-04-01T20:22:42.892Z,22.90
2018-04-01T20:25:12.707Z,22.90
2018-04-01T20:27:42.532Z,22.80
2018-04-01T20:30:12.342Z,22.80
2018-04-01T20:32:43.185Z,22.90
2018-04-01T20:35:33.214Z,22.90
2018-04-01T20:38:03.023Z,22.90
2018-04-01T20:40:32.829Z,23.00
2018-04-01T20:43:02.658Z,22.60
2018-04-01T20:45:32.478Z,22.40
2018-04-01T20:48:02.357Z,22.70
2018-04-01T20:50:32.217Z,22.90
2018-04-01T20:53:02.039Z,23.00
2018-04-01T20:55:31.863Z,23.00
2018-04-01T20:58:01.680Z,23.00
2018-04-01T21:00:31.486Z,23.10
2018-04-01T21:03:01.465Z,23.10
2018-04-01T21:05:31.300Z,23.10
2018-04-01T21:08:01.160Z,23.10
2018-04-01T21:10:31.730Z,23.10
2018-04-01T21:13:01.559Z,23.10
2018-04-01T21:15:31.375Z,23.20
2018-04-01T21:18:01.197Z,23.20
2018-04-01T21:20:31.775Z,23.20
2018-04-01T21:23:01.595Z,23.20
2018-04-01T21:25:31.394Z,23.20
2018-04-01T21:31:09.195Z,23.20
2018-04-01T21:33:39.789Z,23.20
2018-04-01T21:36:09.608Z,23.20
2018-04-01T21:38:39.426Z,23.20
2018-04-01T21:41:09.248Z,23.20
2018-04-01T21:43:39.180Z,23.20
2018-04-01T21:46:09.762Z,23.20
2018-04-01T21:48:39.587Z,23.20
2018-04-01T21:51:09.402Z,23.20
2018-04-01T21:53:39.233Z,23.20
2018-04-01T21:56:09.047Z,23.20
2018-04-01T21:58:38.860Z,23.20
2018-04-01T22:01:09.063Z,23.20
2018-04-01T22:03:39.922Z,23.20
2018-04-01T22:06:09.768Z,23.20
2018-04-01T22:08:39.679Z,23.30
2018-04-01T22:11:09.491Z,23.30
2018-04-01T22:13:39.329Z,23.20
2018-04-01T22:16:09.174Z,23.30
2018-04-01T22:18:39.010Z,23.30
2018-04-01T22:21:09.591Z,23.20
2018-04-01T22:23:40.126Z,23.30
2018-04-01T22:26:17.830Z,23.30
2018-04-01T22:28:47.780Z,23.20
2018-04-01T22:31:17.593Z,23.30
2018-04-01T22:33:47.452Z,23.30
2018-04-01T22:36:17.276Z,23.20
2018-04-01T22:38:47.106Z,23.30
2018-04-01T22:41:16.918Z,23.30
2018-04-01T22:43:46.753Z,23.30
2018-04-01T22:46:16.582Z,23.20
2018-04-01T22:48:47.173Z,23.20
2018-04-01T22:51:16.986Z,23.20
2018-04-01T22:53:46.839Z,23.20
2018-04-01T22:56:17.944Z,23.30
2018-04-01T22:58:50.309Z,23.30
2018-04-01T23:01:20.137Z,23.30
2018-04-01T23:03:55.898Z,23.30
